Time;durP1;ratioP1;P1;durP2;ratioP2;P2;SDS_P1;SDS_P2;PMS_P1;PMS_P2;Temp;Humidity;BMP_temperature;BMP_pressure;BME280_temperature;BME280_humidity;BME280_pressure;Samples;Min_cycle;Max_cycle;Signal;HPM_P1;HPM_P2
2022/03/27 00:01:49;;;;;;;27.45;16.10;;;11.80;47.80;;;;;;5117350;28;20397;-68
2022/03/27 00:04:15;;;;;;;28.88;16.33;;;11.80;47.30;;;;;;5116847;28;20040;-68
2022/03/27 00:06:41;;;;;;;35.65;16.85;;;11.90;46.10;;;;;;5117066;28;20089;-68
2022/03/27 00:09:07;;;;;;;24.50;17.25;;;12.00;45.80;;;;;;5117192;28;20023;-69
2022/03/27 00:11:33;;;;;;;27.92;18.65;;;12.10;44.90;;;;;;5117095;28;20028;-68
2022/03/27 00:14:04;;;;;;;26.67;17.90;;;12.10;44.30;;;;;;5117641;28;20084;-68
2022/03/27 00:16:30;;;;;;;27.08;18.35;;;12.10;44.90;;;;;;5117236;28;20031;-68
2022/03/27 00:18:56;;;;;;;25.95;17.13;;;12.10;44.60;;;;;;5116764;28;20043;-68
2022/03/27 00:21:22;;;;;;;27.77;16.30;;;12.00;44.50;;;;;;5116851;28;20059;-68
2022/03/27 00:23:49;;;;;;;25.88;16.02;;;12.00;44.70;;;;;;5116945;28;20077;-68
2022/03/27 00:26:15;;;;;;;26.35;16.10;;;12.00;44.40;;;;;;5117251;28;20052;-68
2022/03/27 00:28:42;;;;;;;25.00;17.02;;;12.00;45.30;;;;;;5116707;28;20036;-68
2022/03/27 00:31:10;;;;;;;37.30;18.35;;;12.00;44.70;;;;;;5116824;28;20040;-68
2022/03/27 00:33:38;;;;;;;28.40;19.17;;;11.90;44.90;;;;;;5116648;28;20062;-71
2022/03/27 00:36:06;;;;;;;31.92;17.90;;;11.80;45.40;;;;;;5116495;28;20067;-68
2022/03/27 00:38:32;;;;;;;26.70;19.35;;;;;;;;;;5116672;28;20039;-68
2022/03/27 00:40:59;;;;;;;27.10;18.95;;;;;;;;;;5116888;28;20031;-68
2022/03/27 00:43:26;;;;;;;32.83;18.48;;;;;;;;;;5116843;28;20407;-68
2022/03/27 00:45:52;;;;;;;26.75;19.40;;;;;;;;;;5116705;28;20078;-68
2022/03/27 00:48:19;;;;;;;31.75;19.65;;;;;;;;;;5116501;28;20031;-68
2022/03/27 00:50:46;;;;;;;32.65;19.23;;;;;;;;;;5116562;28;20043;-68
2022/03/27 00:53:12;;;;;;;27.85;17.95;;;;;;;;;;5116297;28;20036;-68
2022/03/27 00:55:38;;;;;;;30.73;19.38;;;;;;;;;;5116378;28;20380;-68
2022/03/27 00:58:05;;;;;;;31.15;18.27;;;;;;;;;;5114775;28;20415;-68
2022/03/27 01:00:43;;;;;;;25.67;16.92;;;;;;;;;;5113365;28;20043;-69
2022/03/27 01:03:12;;;;;;;26.50;16.52;;;;;;;;;;5112897;28;20391;-68
2022/03/27 01:05:41;;;;;;;25.20;19.08;;;;;;;;;;5115099;28;20038;-68
2022/03/27 01:08:08;;;;;;;28.88;21.17;;;;;;;;;;5115867;28;20035;-67
2022/03/27 01:10:34;;;;;;;37.53;21.27;;;;;;;;;;5115722;28;20036;-68
2022/03/27 01:13:19;;;;;;;31.85;20.20;;;;;;;;;;5115620;28;20483;-68
2022/03/27 01:15:57;;;;;;;35.03;21.30;;;;;;;;;;5115989;28;20031;-68
2022/03/27 01:18:23;;;;;;;30.20;20.60;;;;;;;;;;5115666;28;20032;-68
2022/03/27 01:20:49;;;;;;;36.63;22.08;;;;;;;;;;5115190;28;20054;-68
2022/03/27 01:23:16;;;;;;;34.63;21.30;;;;;;;;;;5115725;28;20047;-68
2022/03/27 01:25:44;;;;;;;29.95;21.17;;;;;;;;;;5115888;28;20081;-68
2022/03/27 01:28:11;;;;;;;38.83;22.17;;;;;;;;;;5115740;28;20036;-68
2022/03/27 01:30:37;;;;;;;34.17;21.92;;;;;;;;;;5115675;28;20118;-68
2022/03/27 01:33:05;;;;;;;32.30;20.60;;;;;;;;;;5115431;28;20078;-68
2022/03/27 01:35:31;;;;;;;31.77;20.50;;;;;;;;;;5115141;28;20036;-68
2022/03/27 01:37:57;;;;;;;31.70;20.05;;;;;;;;;;5115121;28;20066;-68
2022/03/27 01:40:23;;;;;;;35.58;20.83;;;;;;;;;;5115481;28;20089;-70
2022/03/27 01:42:52;;;;;;;34.95;22.02;;;;;;;;;;5115426;28;20038;-68
2022/03/27 01:45:18;;;;;;;34.90;20.83;;;;;;;;;;5115114;28;20027;-68
2022/03/27 01:47:45;;;;;;;35.40;20.83;;;;;;;;;;5115124;28;20051;-68
2022/03/27 01:50:11;;;;;;;28.93;20.00;;;;;;;;;;5115341;28;20032;-68
2022/03/27 01:52:37;;;;;;;29.10;18.92;;;;;;;;;;5115088;28;20158;-68
2022/03/27 01:55:06;;;;;;;33.40;22.17;;;;;;;;;;5115328;28;20388;-68
2022/03/27 01:57:32;;;;;;;35.33;20.90;;;;;;;;;;5115055;28;20507;-68
2022/03/27 01:59:58;;;;;;;28.43;19.60;;;;;;;;;;5114950;28;20028;-69
2022/03/27 02:02:24;;;;;;;30.87;20.07;;;;;;;;;;5114785;28;20388;-68
2022/03/27 02:04:51;;;;;;;29.07;19.70;;;;;;;;;;5114971;28;20032;-68
2022/03/27 02:07:18;;;;;;;29.85;18.90;;;;;;;;;;5114942;28;20450;-68
2022/03/27 02:09:44;;;;;;;31.47;19.47;;;;;;;;;;5114745;28;20031;-68
2022/03/27 02:12:10;;;;;;;29.27;20.10;;;;;;;;;;5114599;28;20544;-68
2022/03/27 02:14:36;;;;;;;26.43;18.37;;;;;;;;;;5114275;28;20437;-68
2022/03/27 02:17:02;;;;;;;27.47;18.27;;;;;;;;;;5114676;28;20031;-68
2022/03/27 02:19:28;;;;;;;26.23;17.60;;;;;;;;;;5114816;28;20051;-67
2022/03/27 02:21:55;;;;;;;30.03;18.07;;;;;;;;;;5114471;28;20042;-68
2022/03/27 02:24:21;;;;;;;26.47;17.97;;;;;;;;;;5114405;28;20057;-68
2022/03/27 02:26:50;;;;;;;26.00;15.73;;;;;;;;;;5114274;28;20090;-68
2022/03/27 02:29:16;;;;;;;28.87;15.70;;;;;;;;;;5114240;28;20038;-68
2022/03/27 02:31:43;;;;;;;23.43;15.87;;;;;;;;;;5114564;28;20074;-70
2022/03/27 02:34:09;;;;;;;26.90;16.57;;;;;;;;;;5113908;28;20538;-68
2022/03/27 02:36:35;;;;;;;21.87;15.80;;;;;;;;;;5095781;28;20554;-68
2022/03/27 02:39:01;;;;;;;26.97;16.83;;;;;;;;;;5114333;28;20040;-68
2022/03/27 02:41:27;;;;;;;21.80;15.87;;;;;;;;;;5114036;28;20126;-68
2022/03/27 02:43:53;;;;;;;26.87;16.07;;;;;;;;;;5114332;28;20035;-67
2022/03/27 02:46:19;;;;;;;27.53;16.53;;;;;;;;;;5113930;28;20515;-68
2022/03/27 02:48:45;;;;;;;26.00;16.93;;;;;;;;;;5114047;28;20058;-68
2022/03/27 02:51:11;;;;;;;29.20;16.30;;;;;;;;;;5114233;28;20465;-68
2022/03/27 02:53:37;;;;;;;25.80;15.83;;;;;;;;;;5114021;28;20418;-68
2022/03/27 02:56:04;;;;;;;26.10;16.63;;;;;;;;;;5113563;28;20043;-68
2022/03/27 02:58:31;;;;;;;29.13;16.87;;;;;;;;;;5113899;28;20040;-68
2022/03/27 03:00:57;;;;;;;27.30;17.23;;;;;;;;;;5113763;28;20062;-68
2022/03/27 03:03:23;;;;;;;22.37;16.73;;;;;;;;;;5113984;28;20039;-68
2022/03/27 03:05:49;;;;;;;24.10;17.40;;;;;;;;;;5113618;28;20062;-68
2022/03/27 03:08:17;;;;;;;27.13;16.57;;;;;;;;;;5113694;28;20045;-68
2022/03/27 03:10:43;;;;;;;28.33;15.70;;;;;;;;;;5113854;28;20028;-68
2022/03/27 03:13:10;;;;;;;25.13;16.23;;;;;;;;;;5114105;28;20042;-68
2022/03/27 03:15:41;;;;;;;27.60;17.10;;;;;;;;;;5113657;28;20122;-68
2022/03/27 03:18:11;;;;;;;26.10;16.60;;;;;;;;;;5113489;28;20040;-68
2022/03/27 03:20:38;;;;;;;23.40;16.03;;;;;;;;;;5113447;28;20067;-68
2022/03/27 03:23:04;;;;;;;22.80;16.37;;;;;;;;;;5113315;28;20085;-71
2022/03/27 03:25:30;;;;;;;27.07;17.13;;;;;;;;;;5113258;28;20477;-70
2022/03/27 03:27:56;;;;;;;26.20;16.53;;;;;;;;;;5112653;28;20066;-68
2022/03/27 03:30:23;;;;;;;27.07;16.37;;;;;;;;;;5113424;28;20077;-68
2022/03/27 03:32:49;;;;;;;27.20;16.90;;;;;;;;;;5113656;28;20027;-68
2022/03/27 03:35:15;;;;;;;33.80;17.63;;;;;;;;;;5113752;28;20027;-68
2022/03/27 03:37:41;;;;;;;29.97;17.60;;;;;;;;;;5113666;28;20024;-68
2022/03/27 03:40:08;;;;;;;29.43;17.17;;;;;;;;;;5113248;28;20032;-68
2022/03/27 03:42:37;;;;;;;26.13;16.30;;;;;;;;;;5114005;28;20533;-68
2022/03/27 07:33:14;;;;;;;24.92;14.52;;;;;;;;;;5110240;28;20459;-67
2022/03/27 07:35:40;;;;;;;21.52;14.05;;;;;;;;;;5113492;28;20051;-66
2022/03/27 07:38:07;;;;;;;24.05;13.98;;;;;;;;;;5113278;28;20488;-66
2022/03/27 07:40:33;;;;;;;23.02;13.65;;;;;;;;;;5113178;28;20039;-67
2022/03/27 07:43:00;;;;;;;23.50;14.65;;;;;;;;;;5113362;28;20557;-69
2022/03/27 07:45:27;;;;;;;22.77;15.18;;;;;;;;;;5113203;28;20115;-68
2022/03/27 07:47:54;;;;;;;23.38;15.15;;;;;;;;;;5113451;28;20050;-66
2022/03/27 07:50:20;;;;;;;22.77;15.10;;;;;;;;;;5113218;28;20123;-65
2022/03/27 07:52:47;;;;;;;36.67;15.20;;;;;;;;;;5112689;28;20082;-66
2022/03/27 07:55:14;;;;;;;24.05;14.90;;;;;;;;;;5110821;28;20024;-66
2022/03/27 07:57:42;;;;;;;25.98;14.40;;;;;;;;;;5110385;28;20063;-66
2022/03/27 08:00:10;;;;;;;20.17;13.65;;;;;;;;;;5110571;28;20080;-66
2022/03/27 08:02:36;;;;;;;22.20;14.35;;;;;;;;;;5110151;28;20036;-66
2022/03/27 08:05:04;;;;;;;24.98;15.25;;;;;;;;;;5111561;28;20036;-66
2022/03/27 08:07:30;;;;;;;23.13;15.93;;;;;;;;;;5111730;28;20392;-66
2022/03/27 08:09:56;;;;;;;25.02;15.43;;;;;;;;;;5111954;28;20472;-66
2022/03/27 08:12:22;;;;;;;24.30;14.85;;;;;;;;;;5112858;28;20040;-66
2022/03/27 08:14:48;;;;;;;26.75;15.98;;;;;;;;;;5116046;28;20475;-66
2022/03/27 08:17:16;;;;;;;28.33;16.65;;;;;;;;;;5115397;28;20110;-67
2022/03/27 08:19:43;;;;;;;22.75;15.38;;;;;;;;;;5116169;28;20028;-67
2022/03/27 08:22:09;;;;;;;22.23;16.17;;;;;;;;;;5116106;28;20040;-67
2022/03/27 08:24:35;;;;;;;26.02;15.00;;;;;;;;;;5115931;28;20041;-67
2022/03/27 08:27:03;;;;;;;21.45;14.75;;;;;;;;;;5116128;28;20044;-67
2022/03/27 08:29:32;;;;;;;23.98;14.95;;;;;;;;;;5113032;28;20031;-67
2022/03/27 08:32:00;;;;;;;28.65;16.73;;;;;;;;;;5113299;28;20121;-69
2022/03/27 08:34:28;;;;;;;23.52;14.88;;;;;;;;;;5115038;28;20055;-66
2022/03/27 08:36:55;;;;;;;21.85;14.77;;;;;;;;;;5115612;28;20499;-68
2022/03/27 08:39:21;;;;;;;21.55;14.35;;;;;;;;;;5115783;28;20055;-67
2022/03/27 08:41:49;;;;;;;22.98;14.23;;;;;;;;;;5116006;28;20036;-66
2022/03/27 08:44:18;;;;;;;25.52;14.77;;;;;;;;;;5115906;28;20028;-66
2022/03/27 08:46:45;;;;;;;18.23;13.70;;;11.80;45.60;;;;;;5098160;28;20373;-72
2022/03/27 08:49:17;;;;;;;21.55;14.68;;;15.30;41.50;;;;;;5116054;28;20039;-71
2022/03/27 08:52:10;;;;;;;20.67;14.70;;;15.30;41.20;;;;;;5115521;28;20041;-70
2022/03/27 08:54:43;;;;;;;24.23;14.93;;;;;;;;;;5089730;28;20117;-70
2022/03/27 08:57:20;;;;;;;20.85;14.57;;;15.40;40.50;;;;;;5113607;28;20039;-70
2022/03/27 08:59:49;;;;;;;24.15;15.40;;;15.60;39.50;;;;;;5114489;28;20058;-71
2022/03/27 09:02:16;;;;;;;22.27;14.65;;;15.70;40.10;;;;;;5115335;28;20099;-70
2022/03/27 09:04:42;;;;;;;20.15;14.15;;;15.80;40.10;;;;;;5115704;28;20357;-70
2022/03/27 09:07:08;;;;;;;21.02;14.45;;;;;;;;;;5115445;28;20040;-71
2022/03/27 09:09:35;;;;;;;26.08;14.25;;;15.90;38.90;;;;;;5115361;28;20031;-71
2022/03/27 09:12:04;;;;;;;19.98;14.55;;;16.00;38.60;;;;;;5115182;28;20480;-70
2022/03/27 09:14:34;;;;;;;21.73;13.98;;;16.10;38.10;;;;;;5115868;28;20426;-71
2022/03/27 09:17:05;;;;;;;26.15;14.05;;;16.10;37.90;;;;;;5115410;28;20032;-72
2022/03/27 09:19:47;;;;;;;21.77;13.90;;;16.30;39.10;;;;;;5115531;28;20040;-70
2022/03/27 09:22:17;;;;;;;17.50;14.32;;;16.40;37.80;;;;;;5115512;28;20484;-71
2022/03/27 09:24:47;;;;;;;24.23;14.82;;;16.50;38.40;;;;;;5115285;28;20047;-70
2022/03/27 09:27:16;;;;;;;19.83;14.02;;;16.60;37.10;;;;;;5115572;28;20098;-70
2022/03/27 09:30:06;;;;;;;26.08;15.18;;;16.70;36.90;;;;;;5115311;28;20036;-70
2022/03/27 09:32:40;;;;;;;23.60;14.40;;;16.70;37.10;;;;;;5115343;28;20071;-71
2022/03/27 09:35:15;;;;;;;25.27;13.95;;;16.80;36.70;;;;;;5115344;28;20036;-71
2022/03/27 09:37:46;;;;;;;20.77;14.02;;;16.90;36.60;;;;;;5113876;28;20032;-70
2022/03/27 09:40:13;;;;;;;23.17;15.73;;;16.90;37.00;;;;;;5115457;28;20376;-71
2022/03/27 09:42:40;;;;;;;21.92;15.70;;;17.00;36.10;;;;;;5114959;28;20024;-71
2022/03/27 09:45:21;;;;;;;25.35;15.43;;;17.10;35.60;;;;;;5114835;28;20043;-71
2022/03/27 09:47:48;;;;;;;20.58;14.65;;;17.20;35.70;;;;;;5115112;28;20040;-70
2022/03/27 09:50:32;;;;;;;21.52;16.25;;;17.30;36.80;;;;;;5115183;28;20454;-70
2022/03/27 09:53:24;;;;;;;24.95;17.88;;;17.40;36.40;;;;;;5115269;28;20440;-70
2022/03/27 09:55:56;;;;;;;21.83;15.57;;;17.50;35.70;;;;;;5115480;28;20034;-71
2022/03/27 09:58:46;;;;;;;25.77;15.82;;;17.60;34.30;;;;;;5115382;28;20106;-71
2022/03/27 10:01:24;;;;;;;25.05;16.45;;;17.80;33.40;;;;;;5115108;28;20071;-71
2022/03/27 10:03:57;;;;;;;25.48;15.90;;;17.90;34.90;;;;;;5115119;28;20067;-70
2022/03/27 10:06:32;;;;;;;21.10;15.38;;;18.00;36.50;;;;;;5115196;28;20430;-71
2022/03/27 10:09:02;;;;;;;22.00;15.27;;;18.10;33.40;;;;;;5115121;28;20031;-71
2022/03/27 10:11:28;;;;;;;28.65;15.23;;;18.20;35.30;;;;;;5114787;28;20027;-71
2022/03/27 10:13:54;;;;;;;24.02;15.40;;;18.30;34.70;;;;;;5114815;28;20038;-71
2022/03/27 10:16:26;;;;;;;23.33;15.90;;;18.50;32.40;;;;;;5115186;28;20036;-71
2022/03/27 10:18:59;;;;;;;23.75;15.05;;;18.60;32.30;;;;;;5114793;28;20035;-71
2022/03/27 10:21:26;;;;;;;26.73;16.48;;;18.60;32.30;;;;;;5114895;28;20504;-71
2022/03/27 10:24:11;;;;;;;18.83;14.90;;;18.60;31.90;;;;;;5114474;28;20395;-71
2022/03/27 10:26:38;;;;;;;21.15;14.45;;;18.60;32.30;;;;;;5114722;28;20496;-70
2022/03/27 10:29:06;;;;;;;22.90;14.05;;;18.70;31.70;;;;;;5114796;28;20439;-71
2022/03/27 10:31:32;;;;;;;19.45;14.60;;;18.90;32.00;;;;;;5114469;28;20097;-70
2022/03/27 10:34:00;;;;;;;22.42;13.65;;;19.00;31.30;;;;;;5114447;28;20040;-71
2022/03/27 10:36:34;;;;;;;21.67;14.40;;;19.10;33.30;;;;;;5113846;28;20491;-70
2022/03/27 10:39:02;;;;;;;16.60;14.13;;;19.20;31.30;;;;;;5114142;28;20118;-71
2022/03/27 10:41:57;;;;;;;18.63;13.40;;;19.30;33.10;;;;;;5114285;28;20118;-70
2022/03/27 10:44:37;;;;;;;22.30;14.43;;;19.50;32.40;;;;;;5114448;28;20032;-71
2022/03/27 10:47:21;;;;;;;23.65;14.77;;;19.80;31.40;;;;;;5114117;28;20094;-71
2022/03/27 10:50:02;;;;;;;18.85;13.07;;;19.90;30.70;;;;;;5114176;28;20102;-71
2022/03/27 10:52:30;;;;;;;23.98;13.60;;;20.00;32.50;;;;;;5114272;28;20035;-71
2022/03/27 10:55:14;;;;;;;20.17;14.90;;;20.10;31.60;;;;;;5114111;28;20085;-71
2022/03/27 10:57:42;;;;;;;25.30;14.63;;;20.30;31.40;;;;;;5113382;28;20334;-71
2022/03/27 11:00:10;;;;;;;17.63;14.63;;;20.40;30.60;;;;;;5111414;28;20448;-71
2022/03/27 11:02:44;;;;;;;20.02;13.55;;;20.50;30.20;;;;;;5111251;28;20044;-71
2022/03/27 11:05:28;;;;;;;15.95;13.00;;;20.60;29.30;;;;;;5114360;28;20093;-71
2022/03/27 11:08:17;;;;;;;17.20;13.43;;;20.70;31.00;;;;;;5113973;28;20385;-71
2022/03/27 11:10:52;;;;;;;22.63;14.30;;;20.80;29.80;;;;;;5113574;28;20115;-71
2022/03/27 11:13:27;;;;;;;18.33;14.20;;;20.90;29.00;;;;;;5114018;28;20032;-71
2022/03/27 11:16:09;;;;;;;18.92;14.82;;;21.00;28.80;;;;;;5113781;28;20154;-71
2022/03/27 11:18:55;;;;;;;22.30;12.35;;;21.10;29.80;;;;;;5113727;28;20027;-70
2022/03/27 11:21:29;;;;;;;18.63;12.98;;;21.20;29.50;;;;;;5113294;28;20404;-71
2022/03/27 11:24:03;;;;;;;16.33;13.38;;;21.30;29.20;;;;;;5111139;28;20123;-71
2022/03/27 11:26:32;;;;;;;22.92;13.55;;;21.50;28.30;;;;;;5110576;28;20040;-71
2022/03/27 11:29:04;;;;;;;15.95;13.07;;;21.50;29.10;;;;;;5110738;28;20093;-71
2022/03/27 11:31:32;;;;;;;21.48;12.98;;;21.60;27.90;;;;;;5113254;28;20039;-71
2022/03/27 11:34:14;;;;;;;22.88;13.05;;;21.60;28.40;;;;;;5113712;28;20502;-71
2022/03/27 11:36:48;;;;;;;24.75;13.80;;;21.80;28.60;;;;;;5113124;28;20028;-71
2022/03/27 11:39:29;;;;;;;19.95;13.52;;;21.80;27.80;;;;;;5113271;28;20486;-71
2022/03/27 11:41:55;;;;;;;20.98;14.95;;;21.90;27.40;;;;;;5113496;28;20036;-71
2022/03/27 11:47:20;;;;;;;23.77;15.93;;;22.10;27.30;;;;;;5113275;28;20097;-71
2022/03/27 11:49:47;;;;;;;22.80;15.48;;;22.20;26.20;;;;;;5117335;28;20027;-71
2022/03/27 11:52:17;;;;;;;21.75;14.43;;;22.30;26.40;;;;;;5117049;28;20115;-71
2022/03/27 11:54:43;;;;;;;21.55;14.65;;;22.40;28.00;;;;;;5117465;28;20047;-71
2022/03/27 11:57:09;;;;;;;23.23;14.63;;;22.40;26.60;;;;;;5117643;28;20115;-71
2022/03/27 11:59:47;;;;;;;18.40;14.32;;;22.50;26.80;;;;;;5117352;28;20487;-71
2022/03/27 12:02:14;;;;;;;24.27;15.20;;;22.60;27.00;;;;;;5116767;28;20097;-71
2022/03/27 12:04:57;;;;;;;23.80;15.35;;;22.70;27.40;;;;;;5117376;28;20020;-71
2022/03/27 12:07:24;;;;;;;22.52;14.38;;;22.70;26.90;;;;;;5117331;28;20043;-71
2022/03/27 12:10:01;;;;;;;28.73;15.25;;;22.80;26.70;;;;;;5117462;28;20028;-71
2022/03/27 12:12:28;;;;;;;24.70;14.55;;;22.90;26.10;;;;;;5117409;28;20035;-71
2022/03/27 12:15:02;;;;;;;20.02;14.25;;;22.90;27.30;;;;;;5117004;28;20111;-71
2022/03/27 12:17:32;;;;;;;22.42;15.77;;;23.00;26.50;;;;;;5117021;28;20042;-71
2022/03/27 12:20:06;;;;;;;27.02;15.27;;;23.10;26.20;;;;;;5116947;28;20039;-70
2022/03/27 12:22:41;;;;;;;25.98;15.43;;;23.10;27.10;;;;;;5116966;28;20078;-70
2022/03/27 12:25:28;;;;;;;19.70;15.40;;;23.10;27.10;;;;;;5117026;28;20027;-71
2022/03/27 12:31:19;;;;;;;24.63;15.35;;;23.30;25.70;;;;;;5014266;28;20117;-71
2022/03/27 12:33:44;;;;;;;21.73;15.82;;;23.40;25.90;;;;;;5104857;28;20044;-71
2022/03/27 12:36:11;;;;;;;21.55;16.00;;;23.50;25.40;;;;;;5116665;28;20054;-71
2022/03/27 12:38:38;;;;;;;20.67;15.60;;;23.60;25.60;;;;;;5116554;28;20118;-71
2022/03/27 12:41:03;;;;;;;26.13;14.85;;;23.60;25.70;;;;;;5116797;28;20067;-71
2022/03/27 12:43:29;;;;;;;20.55;15.10;;;23.70;27.00;;;;;;5116686;28;20051;-71
2022/03/27 12:45:56;;;;;;;21.58;14.95;;;23.80;26.40;;;;;;5116484;28;20556;-71
2022/03/27 12:48:25;;;;;;;21.63;14.70;;;23.80;26.30;;;;;;5116342;28;20427;-71
2022/03/27 12:50:56;;;;;;;21.98;14.30;;;23.70;27.20;;;;;;5116676;28;20036;-71
2022/03/27 12:53:22;;;;;;;22.23;14.27;;;25.90;29.30;;;;;;5116304;28;20037;-71
2022/03/27 12:56:01;;;;;;;18.02;14.73;;;23.90;28.10;;;;;;5116534;28;20085;-71
2022/03/27 12:58:37;;;;;;;22.60;15.73;;;23.90;28.00;;;;;;5114173;28;20046;-71
2022/03/27 13:01:09;;;;;;;18.25;13.65;;;24.00;27.90;;;;;;5113292;28;20043;-71
2022/03/27 13:03:39;;;;;;;20.98;14.02;;;24.00;28.50;;;;;;5114420;28;20043;-71
2022/03/27 13:06:07;;;;;;;19.92;13.02;;;24.00;29.60;;;;;;5116218;28;20032;-71
2022/03/27 13:08:39;;;;;;;20.38;14.13;;;23.90;30.60;;;;;;5116112;28;20036;-71
2022/03/27 13:11:04;;;;;;;20.33;14.52;;;23.90;31.10;;;;;;5116050;28;20082;-71
2022/03/27 13:13:38;;;;;;;15.80;13.38;;;23.90;30.00;;;;;;5115844;28;20431;-71
2022/03/27 13:16:24;;;;;;;20.27;13.75;;;23.90;30.50;;;;;;5116196;28;20381;-71
2022/03/27 13:19:10;;;;;;;19.60;14.68;;;;;;;;;;5116366;28;20035;-71
2022/03/27 13:21:43;;;;;;;21.10;14.30;;;23.80;30.30;;;;;;5115869;28;20492;-71
2022/03/27 13:24:16;;;;;;;21.77;14.38;;;23.80;30.80;;;;;;5113350;28;20039;-71
2022/03/27 13:26:48;;;;;;;21.02;14.45;;;23.70;31.20;;;;;;5112645;28;20046;-71
2022/03/27 13:29:15;;;;;;;19.50;14.80;;;23.70;30.40;;;;;;5113374;28;20050;-71
2022/03/27 13:31:43;;;;;;;23.05;14.05;;;23.60;29.80;;;;;;5115244;28;20408;-71
2022/03/27 13:34:10;;;;;;;18.05;14.35;;;23.60;30.20;;;;;;5115661;28;20038;-71
2022/03/27 13:36:39;;;;;;;22.95;14.15;;;23.50;31.30;;;;;;5115556;28;20039;-71
2022/03/27 13:39:06;;;;;;;18.90;13.43;;;23.50;31.00;;;;;;5115167;28;20035;-71
2022/03/27 13:44:23;;;;;;;23.45;14.45;;;23.40;31.10;;;;;;5115506;28;20498;-71
2022/03/27 13:46:50;;;;;;;21.23;14.75;;;23.30;31.80;;;;;;5115133;28;20040;-71
2022/03/27 13:49:17;;;;;;;23.15;14.65;;;23.10;32.30;;;;;;5115074;28;20546;-71
2022/03/27 13:51:43;;;;;;;19.83;14.30;;;;;;;;;;5115271;28;20402;-71
2022/03/27 13:54:11;;;;;;;25.30;14.48;;;;;;;;;;5115067;28;20108;-71
2022/03/27 13:56:39;;;;;;;22.40;15.05;;;;;;;;;;5115474;28;20028;-71
2022/03/27 13:59:05;;;;;;;18.08;14.05;;;;;;;;;;5115163;28;20032;-71
2022/03/27 14:01:35;;;;;;;23.35;14.02;;;;;;;;;;5114970;28;20519;-71
2022/03/27 14:04:01;;;;;;;22.60;14.85;;;;;;;;;;5114985;28;20097;-71
2022/03/27 14:06:28;;;;;;;19.75;15.20;;;;;;;;;;5114997;28;20028;-70
2022/03/27 14:08:53;;;;;;;20.98;14.45;;;22.80;32.20;;;;;;5114528;28;20067;-70
2022/03/27 14:11:21;;;;;;;24.40;15.07;;;22.00;35.20;;;;;;5114002;28;20028;-71
2022/03/27 14:13:47;;;;;;;20.58;15.13;;;21.90;34.20;;;;;;5114948;28;20511;-71
2022/03/27 14:16:14;;;;;;;20.15;15.38;;;21.80;34.10;;;;;;5114608;28;20118;-71
2022/03/27 14:18:40;;;;;;;22.13;13.57;;;21.80;34.30;;;;;;5114893;28;20032;-71
2022/03/27 14:21:06;;;;;;;18.08;12.93;;;21.70;34.50;;;;;;5114676;28;20036;-70
2022/03/27 14:23:32;;;;;;;20.38;15.20;;;21.70;35.40;;;;;;5114417;28;20093;-71
2022/03/27 14:26:00;;;;;;;17.10;12.55;;;21.60;35.40;;;;;;5114704;28;20032;-71
2022/03/27 14:28:29;;;;;;;19.80;14.18;;;21.70;35.70;;;;;;5114896;28;20387;-71
2022/03/27 14:30:56;;;;;;;20.67;13.15;;;;;;;;;;5113908;28;20475;-70
2022/03/27 14:33:23;;;;;;;21.52;13.55;;;;;;;;;;5114211;28;20496;-71
2022/03/27 14:35:50;;;;;;;18.83;12.90;;;;;;;;;;5114450;28;20038;-71
2022/03/27 14:38:16;;;;;;;16.40;12.38;;;;;;;;;;5114200;28;20040;-70
2022/03/27 14:40:42;;;;;;;20.95;12.90;;;;;;;;;;5114393;28;20035;-70
2022/03/27 14:43:08;;;;;;;16.52;12.75;;;;;;;;;;5114211;28;20399;-71
2022/03/27 14:45:35;;;;;;;15.98;12.60;;;21.70;36.00;;;;;;5114026;28;20423;-71
2022/03/27 14:48:01;;;;;;;18.52;13.13;;;21.30;37.20;;;;;;5114027;28;20040;-71
2022/03/27 14:50:27;;;;;;;17.40;11.43;;;21.30;37.40;;;;;;5114160;28;20050;-71
2022/03/27 14:52:53;;;;;;;15.85;11.77;;;21.10;37.40;;;;;;5113867;28;20031;-71
2022/03/27 14:58:09;;;;;;;17.13;12.52;;;20.90;37.80;;;;;;5114060;28;20047;-71
2022/03/27 15:00:35;;;;;;;16.48;12.23;;;20.80;37.90;;;;;;5113527;28;20031;-70
2022/03/27 15:03:05;;;;;;;19.52;13.25;;;20.80;37.50;;;;;;5113617;28;20020;-71
2022/03/27 15:05:33;;;;;;;20.20;13.07;;;20.70;37.10;;;;;;5113715;28;20032;-71
2022/03/27 15:07:58;;;;;;;22.92;13.45;;;20.70;36.80;;;;;;5113471;28;20484;-70
2022/03/27 15:10:24;;;;;;;17.80;12.60;;;20.60;35.90;;;;;;5113778;28;20118;-71
2022/03/27 15:12:50;;;;;;;17.50;11.90;;;20.60;36.70;;;;;;5113944;28;20114;-71
2022/03/27 15:15:17;;;;;;;19.23;12.80;;;20.60;36.60;;;;;;5113615;28;20035;-70
2022/03/27 15:17:42;;;;;;;17.95;11.88;;;20.50;34.80;;;;;;5113694;28;20381;-72
2022/03/27 15:20:08;;;;;;;21.42;13.30;;;20.50;35.30;;;;;;5113362;28;20031;-71
2022/03/27 15:22:36;;;;;;;20.38;12.90;;;20.40;34.80;;;;;;5113319;28;20035;-70
2022/03/27 15:25:06;;;;;;;20.30;11.80;;;20.40;34.60;;;;;;5113598;28;20024;-71
2022/03/27 15:27:32;;;;;;;22.27;12.20;;;20.30;34.10;;;;;;5113671;28;20043;-71
2022/03/27 15:29:59;;;;;;;18.85;11.25;;;20.20;34.50;;;;;;5113376;28;20028;-71
2022/03/27 15:32:24;;;;;;;19.23;11.63;;;20.10;33.40;;;;;;5112713;28;20101;-71
2022/03/27 15:34:51;;;;;;;17.50;11.48;;;20.10;33.90;;;;;;5113156;28;20065;-71
2022/03/27 15:37:17;;;;;;;17.02;11.75;;;20.10;34.30;;;;;;5113527;28;20047;-70
2022/03/27 15:39:43;;;;;;;21.95;12.10;;;20.00;33.90;;;;;;5113689;28;20027;-70
2022/03/27 15:42:08;;;;;;;17.42;11.48;;;19.90;34.70;;;;;;5113738;28;20027;-70
2022/03/27 15:44:34;;;;;;;15.65;11.85;;;19.90;35.00;;;;;;5113504;28;20032;-71
2022/03/27 15:47:00;;;;;;;17.55;12.30;;;19.80;33.60;;;;;;5113289;28;20134;-70
2022/03/27 15:49:25;;;;;;;21.45;12.38;;;19.80;33.90;;;;;;5113456;28;20369;-71
2022/03/27 15:51:51;;;;;;;20.33;12.73;;;19.70;33.80;;;;;;5113532;28;20052;-71
2022/03/27 15:54:17;;;;;;;18.58;12.50;;;19.60;33.70;;;;;;5113672;28;20031;-70
2022/03/27 15:56:43;;;;;;;17.30;12.68;;;19.60;34.50;;;;;;5113332;28;20048;-71
2022/03/27 15:59:10;;;;;;;18.98;12.38;;;19.50;34.30;;;;;;5113444;28;20024;-72
2022/03/27 16:01:36;;;;;;;16.00;12.05;;;19.50;35.30;;;;;;5113389;28;20035;-70
2022/03/27 16:04:03;;;;;;;20.15;12.43;;;19.50;35.60;;;;;;5113375;28;20495;-71
2022/03/27 16:06:29;;;;;;;18.70;12.50;;;19.40;35.10;;;;;;5113529;28;20044;-70
2022/03/27 16:08:55;;;;;;;15.32;12.20;;;19.40;35.50;;;;;;5113407;28;20039;-71
2022/03/27 16:11:20;;;;;;;17.42;12.60;;;19.40;35.50;;;;;;5113165;28;20089;-70
2022/03/27 16:13:46;;;;;;;19.85;12.80;;;19.30;34.90;;;;;;5113312;28;20089;-71
2022/03/27 16:16:12;;;;;;;18.05;12.88;;;19.30;34.70;;;;;;5113160;28;20032;-70
2022/03/27 16:18:39;;;;;;;24.13;15.40;;;19.20;34.80;;;;;;5113496;28;20028;-70
2022/03/27 16:21:05;;;;;;;19.10;13.27;;;19.10;33.70;;;;;;5112958;28;20032;-70
2022/03/27 16:23:32;;;;;;;18.33;13.70;;;19.10;32.60;;;;;;5113413;28;20039;-71
2022/03/27 16:25:58;;;;;;;25.52;13.52;;;19.00;32.80;;;;;;5113126;28;20076;-71
2022/03/27 16:28:23;;;;;;;22.25;11.98;;;18.90;32.70;;;;;;5112915;28;20055;-71
2022/03/27 16:30:50;;;;;;;20.85;12.73;;;18.90;35.20;;;;;;5112912;28;20391;-70
2022/03/27 16:33:16;;;;;;;24.88;13.30;;;18.90;36.40;;;;;;5113075;28;20118;-70
2022/03/27 16:35:43;;;;;;;21.92;13.07;;;18.90;34.70;;;;;;5117061;28;20038;-71
2022/03/27 16:38:09;;;;;;;21.30;12.38;;;18.90;34.00;;;;;;5116920;28;20024;-71
2022/03/27 16:40:39;;;;;;;19.33;13.13;;;18.80;35.60;;;;;;5116516;28;20554;-71
2022/03/27 16:43:08;;;;;;;21.02;13.65;;;18.80;35.50;;;;;;5116687;28;20027;-70
2022/03/27 16:45:34;;;;;;;21.90;14.00;;;18.80;34.10;;;;;;5098362;28;20430;-70
2022/03/27 16:48:00;;;;;;;25.88;13.60;;;18.80;34.00;;;;;;5116588;28;20046;-71
2022/03/27 16:50:26;;;;;;;20.92;12.95;;;18.80;33.40;;;;;;5117027;28;20032;-71
2022/03/27 16:52:51;;;;;;;22.90;13.90;;;18.70;33.80;;;;;;5116592;28;20034;-71
2022/03/27 16:55:18;;;;;;;22.52;13.70;;;18.70;33.80;;;;;;5116615;28;20039;-70
2022/03/27 16:57:44;;;;;;;19.50;13.38;;;18.70;33.90;;;;;;5116533;28;20166;-70
2022/03/27 17:00:13;;;;;;;19.63;13.05;;;18.60;35.00;;;;;;5116558;28;20067;-71
2022/03/27 17:02:39;;;;;;;23.25;14.18;;;18.60;34.40;;;;;;5116380;28;20030;-71
2022/03/27 17:05:06;;;;;;;19.85;13.77;;;18.50;35.70;;;;;;5116402;28;20038;-71
2022/03/27 17:07:32;;;;;;;18.38;12.98;;;18.40;32.40;;;;;;5116396;28;20040;-71
2022/03/27 17:09:58;;;;;;;21.15;13.45;;;18.30;33.60;;;;;;5115602;28;20024;-71
2022/03/27 17:12:23;;;;;;;24.63;13.32;;;18.20;34.20;;;;;;5115785;28;21350;-70
2022/03/27 17:14:55;;;;;;;23.42;13.60;;;18.10;32.90;;;;;;5116200;28;20027;-71